Latest Weather Observations for Cooma Airport

IDN60901

Issued at 5:45 am EST Wednesday 3 September 2014 (issued every 10 minutes, with the page automatically refreshed every 10 minutes)

About weather observations | Map of Canberra area stations | Latest observations for Canberra area | Other Formats
Station Details ID: 070217 Name: COOMA AIRPORT AWS Lat: -36.29 Lon: 148.97 Height: 930.0 m
Data from the previous 72 hours. | See also: Recent months for locations in Aust Capital Territory
Date/Time
EST
Tmp

°C
App
Tmp
°C
Dew
Point
°C
Rel
Hum
%
Delta-T

°C
Wind Press
QNH
hPa
Press
MSL
hPa
Rain
since
9 am
mm
Dir
 
Spd
km/h
Gust
km/h
Spd
kts
Gust
kts
03/05:30am -0.2 -7.0 -1.5 91 0.5 WSW 24 32 13 17 1016.5 - 2.6
03/05:00am 0.1 -6.6 -0.9 93 0.4 SW 24 32 13 17 1016.7 - 2.6
03/04:30am 0.2 -7.2 -0.6 94 0.3 SW 28 33 15 18 1016.2 - 2.6
03/04:00am 0.5 -6.4 0.2 98 0.1 SW 26 33 14 18 1016.0 - 2.6
03/03:30am 0.2 -7.1 -0.2 97 0.2 SW 28 35 15 19 1015.7 - 2.6
03/03:00am 0.1 -6.9 -0.3 97 0.2 SW 26 33 14 18 1015.7 1015.9 2.6
03/02:30am 0.2 -6.8 -0.2 97 0.2 SW 26 32 14 17 1015.6 - 2.6
03/02:10am 0.5 -7.2 0.1 97 0.2 SW 30 37 16 20 1015.8 - 2.6
03/02:00am 0.8 -6.9 0.2 96 0.2 SW 30 37 16 20 1015.8 - 2.6
03/01:30am 1.1 -6.4 1.0 99 0.0 SW 30 37 16 20 1016.1 - 2.6
03/01:00am 1.1 -6.4 1.0 99 0.0 SW 30 39 16 21 1015.9 - 2.6
03/12:30am 1.3 -5.4 1.2 99 0.0 SW 26 32 14 17 1015.8 - 2.4
03/12:26am 1.2 -5.6 0.9 98 0.1 SW 26 32 14 17 1015.9 - 2.4
03/12:00am 1.3 -5.5 0.7 96 0.2 SW 26 32 14 17 1015.8 1016.0 2.4
 
Date/Time
EST
Tmp

°C
App
Tmp
°C
Dew
Point
°C
Rel
Hum
%
Delta-T

°C
Wind Press
QNH
hPa
Press
MSL
hPa
Rain
since
9 am
mm
Dir
 
Spd
km/h
Gust
km/h
Spd
kts
Gust
kts
02/11:47pm 1.2 -5.2 0.8 97 0.2 SW 24 30 13 16 1015.8 - 2.4
02/11:30pm 1.3 -5.5 0.9 97 0.2 SW 26 32 14 17 1015.9 - 2.4
02/11:22pm 1.4 -5.4 1.1 98 0.1 SW 26 30 14 16 1015.9 - 2.4
02/11:21pm 1.4 -5.4 1.1 98 0.1 SW 26 30 14 16 1016.0 - 2.4
02/11:00pm 1.3 -5.4 1.2 99 0.0 SW 26 35 14 19 1016.0 - 2.4
02/10:30pm 1.4 -5.3 1.3 99 0.0 SW 26 37 14 20 1016.1 - 2.4
02/10:00pm 1.5 -5.2 1.2 98 0.1 SW 26 32 14 17 1016.1 - 2.4
02/09:30pm 1.5 -5.3 1.1 97 0.2 SW 26 35 14 19 1016.0 - 2.4
02/09:00pm 1.3 -5.5 0.9 97 0.2 SW 26 32 14 17 1016.0 1016.2 2.4
02/08:49pm 1.3 -5.9 0.9 97 0.2 SW 28 39 15 21 1016.0 - 2.4
02/08:30pm 1.0 -5.8 0.7 98 0.1 SW 26 33 14 18 1015.9 - 2.4
02/08:00pm 1.6 -6.5 1.0 96 0.2 SW 33 41 18 22 1015.4 - 2.4
02/07:30pm 1.8 -6.6 1.4 97 0.2 SSW 35 48 19 26 1015.1 - 2.4
02/07:00pm 2.0 -6.4 1.7 98 0.1 SW 35 44 19 24 1014.5 - 2.4
02/06:56pm 1.9 -6.1 1.8 99 0.0 SW 33 44 18 24 1014.2 - 2.4
02/06:30pm 1.6 -6.4 1.5 99 0.0 SW 33 41 18 22 1013.8 - 2.4
02/06:00pm 1.9 -7.2 1.8 99 0.0 SSW 39 50 21 27 1013.5 1013.6 2.2
02/05:30pm 2.2 -6.1 2.1 99 0.0 SW 35 46 19 25 1012.9 - 2.0
02/05:00pm 2.3 -6.0 2.2 99 0.0 SW 35 46 19 25 1012.4 - 2.0
02/04:30pm 2.1 -7.4 2.0 99 0.0 SW 41 56 22 30 1012.1 - 1.6
02/04:07pm 2.3 -7.5 2.2 99 0.0 SW 43 61 23 33 1011.8 - 1.2
02/04:00pm 2.3 -8.1 2.0 98 0.1 SW 46 57 25 31 1011.7 - 1.2
02/03:30pm 2.9 -6.5 2.3 96 0.3 SW 41 54 22 29 1011.4 - 1.0
02/03:00pm 3.3 -6.1 2.3 93 0.4 SW 41 54 22 29 1011.1 1011.2 0.4
02/02:30pm 3.7 -6.0 3.0 95 0.3 SW 43 54 23 29 1010.9 - 0.2
02/02:00pm 3.8 -5.5 2.9 94 0.4 SW 41 52 22 28 1010.5 - 0.0
02/01:36pm 4.8 -5.0 3.1 89 0.7 SW 44 57 24 31 1010.2 - 0.0
02/01:30pm 4.9 -5.3 3.2 89 0.7 SW 46 57 25 31 1010.3 - 0.0
02/01:00pm 5.2 -5.6 1.9 79 1.4 SW 48 61 26 33 1010.1 - 0.0
02/12:30pm 5.8 -6.4 2.8 81 1.3 SW 56 70 30 38 1010.2 - 0.0
02/12:00pm 6.1 -5.2 1.2 71 2.1 SW 50 70 27 38 1010.3 1010.4 0.0
02/11:30am 6.9 -3.8 2.6 74 1.9 SW 48 67 26 36 1010.3 - 0.0
02/11:17am 6.2 -4.6 1.7 73 1.9 SSW 48 67 26 36 1010.2 - 0.0
02/11:00am 5.9 -4.5 2.2 77 1.6 SW 46 63 25 34 1010.4 - 0.0
02/10:30am 6.4 -3.4 2.1 74 1.9 SSW 43 61 23 33 1010.4 - 0.0
02/10:29am 6.6 -3.1 2.7 76 1.7 SSW 43 61 23 33 1010.5 - 0.0
02/10:00am 6.1 -4.3 2.2 76 1.7 SSW 46 61 25 33 1010.4 - 0.0
02/09:30am 5.9 -4.5 1.8 75 1.8 SSW 46 59 25 32 1010.2 - 0.0
02/09:00am 4.8 -3.8 2.7 86 0.9 SSW 37 48 20 26 1010.3 1010.4 1.4
02/08:30am 4.2 -3.4 2.6 89 0.7 SW 32 41 17 22 1010.3 - 1.4
02/08:00am 4.4 -3.4 2.9 90 0.6 SW 33 41 18 22 1010.2 - 1.4
02/07:30am 3.8 -2.6 3.1 95 0.3 SW 26 32 14 17 1010.3 - 1.4
02/07:05am 3.3 -3.2 2.7 96 0.3 SW 26 32 14 17 1010.3 - 1.4
02/07:00am 3.4 -3.0 3.1 98 0.1 SW 26 32 14 17 1010.4 - 1.4
02/06:30am 3.4 -2.2 3.3 99 0.0 SW 22 26 12 14 1010.1 - 1.4
02/06:00am 3.4 -4.2 3.1 98 0.1 SW 32 41 17 22 1009.9 1009.9 1.2
02/05:30am 3.5 -4.0 3.4 99 0.0 SSW 32 41 17 22 1008.7 - 1.2
02/05:00am 3.7 -2.6 3.6 99 0.0 SW 26 33 14 18 1009.2 - 1.0
02/04:30am 3.8 -2.5 3.7 99 0.0 SW 26 33 14 18 1009.3 - 0.6
02/04:12am 3.8 -2.9 3.5 98 0.1 SSW 28 35 15 19 1008.8 - 0.4
02/04:00am 4.1 -3.9 3.8 98 0.1 SSW 35 48 19 26 1008.7 - 0.4
02/03:59am 4.1 -3.9 3.8 98 0.1 SW 35 48 19 26 1008.7 - 0.4
02/03:57am 4.3 -3.7 3.9 97 0.2 SW 35 48 19 26 1008.7 - 0.4
02/03:51am 5.0 -2.1 3.8 92 0.5 SW 30 48 16 26 1008.4 - 0.2
02/03:30am 5.6 -1.7 4.6 93 0.5 SW 32 39 17 21 1008.1 - 0.0
02/03:24am 5.8 -0.8 4.4 91 0.6 WSW 28 39 15 21 1008.0 - 0.0
02/03:00am 6.7 3.3 3.9 82 1.3 NW 11 17 6 9 1008.0 1008.0 0.0
02/02:30am 6.6 3.3 4.4 86 1.0 NNW 11 17 6 9 1008.1 - 0.0
02/02:00am 6.4 3.2 4.9 90 0.7 N 11 19 6 10 1008.4 - 0.0
02/01:30am 6.4 2.8 5.2 92 0.6 NNE 13 17 7 9 1008.9 - 0.0
02/01:00am 6.8 2.8 4.8 87 0.9 N 15 17 8 9 1009.3 - 0.0
02/12:30am 7.1 5.7 3.5 78 1.6 CALM 0 9 0 5 1009.5 - 0.0
02/12:00am 7.5 4.6 2.8 72 2.1 N 7 9 4 5 1009.9 1009.9 0.0
 
Date/Time
EST
Tmp

°C
App
Tmp
°C
Dew
Point
°C
Rel
Hum
%
Delta-T

°C
Wind Press
QNH
hPa
Press
MSL
hPa
Rain
since
9 am
mm
Dir
 
Spd
km/h
Gust
km/h
Spd
kts
Gust
kts
01/11:30pm 8.4 4.7 2.6 67 2.6 WNW 11 17 6 9 1010.0 - 0.0
01/11:00pm 8.6 4.3 3.0 68 2.5 NW 15 20 8 11 1010.1 - 0.0
01/10:30pm 9.1 4.0 3.1 66 2.7 WNW 19 30 10 16 1010.1 - 0.0
01/10:00pm 9.4 5.4 2.9 64 2.9 W 13 19 7 10 1010.1 - 0.0
01/09:30pm 8.9 6.1 2.9 66 2.7 WNW 7 13 4 7 1009.9 - 0.0
01/09:00pm 10.3 7.2 3.8 64 3.0 WNW 9 15 5 8 1009.9 1009.9 0.0
01/08:30pm 9.1 4.6 4.3 72 2.2 N 17 19 9 10 1009.8 - 0.0
01/08:00pm 9.5 6.0 3.5 66 2.8 N 11 13 6 7 1009.9 - 0.0
01/07:30pm 10.0 6.1 3.3 63 3.1 N 13 15 7 8 1009.8 - 0.0
01/07:00pm 10.5 6.3 3.8 63 3.1 N 15 19 8 10 1009.9 - 0.0
01/06:30pm 10.8 7.1 2.4 56 3.8 N 11 19 6 10 1010.0 - 0.0
01/06:00pm 11.8 6.1 2.8 54 4.2 NNW 22 39 12 21 1010.0 1010.1 0.0
01/05:30pm 12.2 6.3 1.5 48 4.8 NNW 22 32 12 17 1010.1 - 0.0
01/05:00pm 13.1 7.2 1.8 46 5.2 NNW 22 32 12 17 1009.9 - 0.0
01/04:30pm 13.3 7.0 1.6 45 5.3 NNW 24 39 13 21 1009.5 - 0.0
01/04:00pm 14.4 7.4 1.7 42 5.8 NNW 28 35 15 19 1009.6 - 0.0
01/03:37pm 14.8 7.8 2.0 42 5.9 NNW 28 46 15 25 1009.6 - 0.0
01/03:30pm 14.8 8.0 3.0 45 5.6 NNW 28 41 15 22 1009.9 - 0.0
01/03:00pm 14.1 6.7 2.0 44 5.6 NNW 30 39 16 21 1010.0 1010.1 0.0
01/02:35pm 14.4 7.5 2.3 44 5.6 NW 28 46 15 25 1010.0 - 0.0
01/02:30pm 14.4 7.0 1.7 42 5.8 NW 30 46 16 25 1010.0 - 0.0
01/02:00pm 14.2 6.3 1.2 41 5.9 NNW 32 41 17 22 1010.4 - 0.0
01/01:30pm 14.1 7.0 1.4 42 5.8 NW 28 43 15 23 1010.9 - 0.0
01/01:00pm 13.9 5.9 1.5 43 5.7 NW 33 50 18 27 1011.5 - 0.0
01/12:30pm 13.8 7.2 2.1 45 5.4 NW 26 43 14 23 1012.1 - 0.0
01/12:00pm 14.0 8.7 2.9 47 5.2 NW 20 37 11 20 1012.5 1012.6 0.0
01/11:30am 13.9 8.5 2.5 46 5.3 WNW 20 37 11 20 1013.0 - 0.0
01/11:00am 13.7 8.5 3.5 50 4.8 NW 20 30 11 16 1013.4 - 0.0
01/10:30am 10.7 5.7 3.7 62 3.3 NE 19 22 10 12 1013.8 - 0.0
01/10:00am 9.9 5.1 4.7 70 2.5 NNE 19 20 10 11 1014.1 - 0.0
01/09:30am 8.0 3.4 3.7 74 2.0 ENE 17 24 9 13 1014.6 - 0.0
01/09:00am 7.1 2.0 3.3 77 1.7 NE 19 20 10 11 1014.9 1015.1 0.0
01/08:30am 6.3 1.8 2.4 76 1.7 N 15 20 8 11 1015.3 - 0.0
01/08:00am 6.5 1.7 2.4 75 1.8 N 17 19 9 10 1015.4 - 0.0
01/07:30am 6.7 1.5 2.2 73 2.0 N 19 20 10 11 1015.3 - 0.0
01/07:00am 3.9 -0.3 1.6 85 1.0 N 13 17 7 9 1015.3 - 0.0
01/06:30am 2.0 -2.3 1.0 93 0.4 N 13 17 7 9 1015.3 - 0.0
01/06:00am -0.4 -4.3 -1.2 94 0.3 N 9 11 5 6 1015.2 1015.4 0.0
01/05:30am 0.3 -3.8 -0.3 96 0.2 NNE 11 11 6 6 1015.3 - 0.0
01/05:00am 0.5 -3.3 -0.5 93 0.4 NNE 9 11 5 6 1015.2 - 0.0
01/04:30am 0.8 -3.2 0.4 97 0.2 NNE 11 15 6 8 1015.0 - 0.0
01/04:00am 0.5 -3.3 -0.5 93 0.4 NNE 9 11 5 6 1015.1 - 0.0
01/03:30am 0.3 -3.8 -0.3 96 0.2 NNE 11 13 6 7 1015.0 - 0.0
01/03:00am 0.7 -3.4 -0.2 94 0.3 NE 11 13 6 7 1015.4 1015.7 0.0
01/02:30am 0.3 -3.6 -1.3 89 0.6 NNE 9 11 5 6 1015.7 - 0.0
01/02:00am -0.1 -4.4 -1.8 88 0.6 ENE 11 13 6 7 1016.0 - 0.0
01/01:30am 1.4 -2.7 0.1 91 0.5 NNE 11 13 6 7 1016.3 - 0.0
01/01:00am 1.1 -2.3 -0.7 88 0.7 N 7 11 4 6 1016.2 - 0.0
01/12:30am 0.7 -2.6 -1.5 85 0.9 NE 6 9 3 5 1016.5 - 0.0
01/12:00am 1.2 -2.2 -0.9 86 0.8 NNE 7 9 4 5 1016.7 1016.9 0.0
 
Date/Time
EST
Tmp

°C
App
Tmp
°C
Dew
Point
°C
Rel
Hum
%
Delta-T

°C
Wind Press
QNH
hPa
Press
MSL
hPa
Rain
since
9 am
mm
Dir
 
Spd
km/h
Gust
km/h
Spd
kts
Gust
kts
31/11:30pm 0.8 -2.7 -1.6 84 0.9 NNE 7 11 4 6 1017.0 - 0.0
31/11:00pm 2.1 -1.2 0.3 88 0.7 NNE 7 9 4 5 1017.1 - 0.0
31/10:30pm 1.9 -1.5 -0.3 85 0.9 NNE 7 9 4 5 1017.3 - 0.0
31/10:00pm 1.5 -2.3 -0.7 85 0.8 NNE 9 15 5 8 1017.5 - 0.0
31/09:30pm 4.6 1.6 1.8 82 1.2 NNW 7 9 4 5 1017.9 - 0.0
31/09:00pm 3.0 -0.4 -0.5 78 1.4 N 7 9 4 5 1017.7 1019.0 0.0
31/08:30pm 5.5 2.0 1.2 74 1.8 N 9 11 5 6 1017.6 - 0.0
31/08:00pm 2.8 -0.5 0.4 84 1.0 N 7 9 4 5 1017.4 - 0.0
31/07:30pm 4.1 2.2 0.4 77 1.5 CALM 0 0 0 0 1017.5 - 0.0
31/07:00pm 4.7 2.0 0.3 73 1.8 NNE 4 9 2 5 1017.4 - 0.0
31/06:30pm 6.4 4.6 1.5 71 2.1 CALM 0 0 0 0 1017.2 - 0.0
31/06:00pm 9.7 7.9 1.4 56 3.6 CALM 0 0 0 0 1017.2 1018.4 0.0
31/05:30pm 12.9 11.3 2.2 48 4.9 CALM 0 0 0 0 1017.0 - 0.0
31/05:00pm 14.3 12.4 0.5 39 6.2 CALM 0 0 0 0 1017.0 - 0.0
31/04:30pm 15.0 12.0 0.8 38 6.4 NNE 6 9 3 5 1016.8 - 0.0
31/04:00pm 15.3 12.2 -0.1 35 6.9 NNE 6 9 3 5 1016.8 - 0.0
31/03:30pm 14.9 12.4 -0.8 34 6.9 ESE 2 9 1 5 1016.8 - 0.0
31/03:00pm 15.3 12.2 -0.1 35 6.9 ENE 6 11 3 6 1017.0 1018.2 0.0
31/02:30pm 15.2 11.6 0.6 37 6.6 ENE 9 19 5 10 1017.3 - 0.0
31/02:00pm 14.9 11.7 0.7 38 6.4 NE 7 15 4 8 1017.6 - 0.0
31/01:30pm 14.1 10.9 -0.7 36 6.5 E 6 11 3 6 1017.9 - 0.0
31/01:00pm 13.9 10.5 -0.5 37 6.3 ESE 7 13 4 7 1018.2 - 0.0
31/12:30pm 13.7 10.4 2.6 47 5.2 E 9 13 5 7 1018.7 - 0.0
31/12:00pm 13.2 9.4 3.8 53 4.5 ENE 13 19 7 10 1019.4 1020.7 0.0
31/11:30am 12.1 8.1 2.8 53 4.3 NE 13 19 7 10 1019.8 - 0.0
31/11:00am 10.9 6.7 3.9 62 3.3 NE 15 20 8 11 1020.2 - 0.0
31/10:30am 9.5 5.5 3.0 64 3.0 NE 13 17 7 9 1020.7 - 0.0
31/10:00am 7.1 2.6 2.4 72 2.1 NNE 15 17 8 9 1021.1 - 0.0
31/09:30am 5.7 1.3 2.5 80 1.4 NE 15 19 8 10 1021.1 - 0.0
31/09:00am 4.2 0.5 2.4 88 0.8 NE 11 13 6 7 1021.2 1022.6 0.2
31/08:30am 2.3 -2.2 2.2 99 0.0 NE 15 17 8 9 1021.5 - 0.2
31/08:00am 0.5 -3.9 0.4 99 0.0 NNE 13 15 7 8 1021.4 - 0.2
31/07:58am 0.3 -3.7 0.2 99 0.0 NNE 11 15 6 8 1021.4 - 0.2
31/07:56am 0.2 -3.9 0.1 99 0.0 NNE 11 15 6 8 1021.4 - 0.2
31/07:30am -1.5 -5.4 -1.6 99 0.0 N 9 9 5 5 1021.2 - 0.2
31/07:00am -2.3 -6.7 -2.4 99 -0.1 N 11 13 6 7 1021.2 - 0.2
31/06:30am -1.9 -5.5 -2.0 99 -0.1 N 7 11 4 6 1021.1 - 0.2
31/06:00am -3.4 -8.3 -3.5 99 -0.1 NNE 13 13 7 7 1020.8 1022.1 0.2

Latest Capital City Observations: Canberra | Sydney | Melbourne | Brisbane | Adelaide | Perth | Hobart | Darwin

Other Formats:

Comma delimited format used in spreadsheet applications
http://www.bom.gov.au/fwo/IDN60903/IDN60903.94921.axf

JavaScript Object Notation format (JSON) in row-major order
http://www.bom.gov.au/fwo/IDN60903/IDN60903.94921.json